Time;durP1;ratioP1;P1;durP2;ratioP2;P2;SDS_P1;SDS_P2;PMS_P1;PMS_P2;Temp;Humidity;BMP_temperature;BMP_pressure;BME280_temperature;BME280_humidity;BME280_pressure;Samples;Min_cycle;Max_cycle;Signal;HPM_P1;HPM_P2
2022/12/12 00:01:47;;;;;;;;;;;;;;;26.02;31.55;99313.13;5018121;28;1156;-21
2022/12/12 00:04:13;;;;;;;;;;;;;;;26.01;31.61;99314.16;5018468;28;1148;-21
2022/12/12 00:06:38;;;;;;;;;;;;;;;25.24;28.19;99326.16;5017831;28;1215;-22
2022/12/12 00:09:03;;;;;;;;;;;;;;;25.48;29.92;99323.06;5017529;28;1386;-20
2022/12/12 00:11:29;;;;;;;;;;;;;;;25.68;30.82;99317.72;5018265;28;1092;-21
2022/12/12 00:13:54;;;;;;;;;;;;;;;25.78;31.32;99328.91;5017898;28;1974;-20
2022/12/12 00:16:19;;;;;;;;;;;;;;;25.77;31.25;99337.19;5017694;28;1264;-21
2022/12/12 00:18:45;;;;;;;;;;;;;;;25.80;31.29;99334.94;5017611;28;1140;-20
2022/12/12 00:21:12;;;;;;;;;;;;;;;25.77;31.29;99340.72;5017100;28;1101;-21
2022/12/12 00:23:37;;;;;;;;;;;;;;;25.75;31.73;99341.97;5005158;28;1105;-21
2022/12/12 00:26:03;;;;;;;;;;;;;;;25.79;31.55;99354.78;5015744;28;1149;-21
2022/12/12 00:28:29;;;;;;;;;;;;;;;25.82;31.76;99358.13;5017666;28;1057;-21
2022/12/12 00:30:54;;;;;;;;;;;;;;;25.75;31.46;99361.66;5017726;28;1168;-21
2022/12/12 00:33:20;;;;;;;;;;;;;;;25.73;31.61;99360.19;5017396;28;1914;-21
2022/12/12 00:35:48;;;;;;;;;;;;;;;25.71;31.84;99363.09;5017589;28;1152;-21
2022/12/12 00:38:13;;;;;;;;;;;;;;;25.68;31.83;99355.44;5017295;28;1089;-21
2022/12/12 00:40:38;;;;;;;;;;;;;;;25.66;31.57;99352.94;5017583;28;1140;-21
2022/12/12 00:43:03;;;;;;;;;;;;;;;25.65;32.04;99355.84;5016117;28;1224;-21
2022/12/12 00:45:29;;;;;;;;;;;;;;;25.64;31.78;99359.59;5017456;28;950;-20
2022/12/12 00:47:54;;;;;;;;;;;;;;;25.59;31.49;99351.25;5017601;28;1100;-21
2022/12/12 00:50:20;;;;;;;;;;;;;;;25.58;31.38;99353.13;5017347;28;1121;-20
2022/12/12 00:52:45;;;;;;;;;;;;;;;25.56;31.93;99364.09;5017161;28;2009;-21
2022/12/12 00:55:10;;;;;;;;;;;;;;;25.56;31.59;99374.03;5017398;28;1164;-21
2022/12/12 00:57:36;;;;;;;;;;;;;;;25.54;31.81;99370.75;5016954;28;878;-21
2022/12/12 01:00:01;;;;;;;;;;;;;;;25.51;31.76;99380.03;5016868;28;1124;-21
2022/12/12 01:02:26;;;;;;;;;;;;;;;25.50;31.57;99380.25;5017183;28;1136;-21
2022/12/12 01:04:52;;;;;;;;;;;;;;;25.45;31.61;99378.19;5016726;28;1168;-21
2022/12/12 01:07:17;;;;;;;;;;;;;;;25.48;31.85;99390.38;5017156;28;1125;-21
2022/12/12 01:09:42;;;;;;;;;;;;;;;25.46;31.81;99389.78;5016854;28;877;-21
2022/12/12 01:12:07;;;;;;;;;;;;;;;25.44;31.69;99390.78;5016536;28;1886;-21
2022/12/12 01:14:33;;;;;;;;;;;;;;;25.46;31.70;99397.84;5017187;28;1503;-21
2022/12/12 01:16:58;;;;;;;;;;;;;;;25.49;31.83;99414.41;5016795;28;1258;-21
2022/12/12 01:19:23;;;;;;;;;;;;;;;25.53;31.37;99418.38;5016666;28;1167;-21
2022/12/12 01:21:49;;;;;;;;;;;;;;;25.53;31.71;99428.28;5016768;28;841;-21
2022/12/12 01:24:14;;;;;;;;;;;;;;;25.49;31.57;99427.88;5016921;28;1262;-20
2022/12/12 01:26:39;;;;;;;;;;;;;;;25.45;31.77;99426.63;5016541;28;1097;-21
2022/12/12 01:29:04;;;;;;;;;;;;;;;25.46;31.96;99425.59;5016539;28;1227;-21
2022/12/12 01:31:30;;;;;;;;;;;;;;;25.50;31.88;99416.09;5016559;28;1223;-21
2022/12/12 01:33:55;;;;;;;;;;;;;;;25.48;31.71;99420.84;5016620;28;1887;-21
2022/12/12 01:36:21;;;;;;;;;;;;;;;25.43;31.65;99416.06;5016342;28;1231;-20
2022/12/12 01:38:46;;;;;;;;;;;;;;;25.39;31.89;99412.13;5016558;28;1159;-21
2022/12/12 01:41:12;;;;;;;;;;;;;;;25.40;31.81;99429.09;5016112;28;1164;-22
2022/12/12 01:43:37;;;;;;;;;;;;;;;25.38;31.77;99434.69;5016475;28;1132;-21
2022/12/12 01:46:02;;;;;;;;;;;;;;;25.36;31.93;99438.63;5016394;28;1187;-21
2022/12/12 01:48:29;;;;;;;;;;;;;;;25.39;32.01;99449.81;5002374;28;1231;-21
2022/12/12 01:50:55;;;;;;;;;;;;;;;25.38;32.18;99456.22;5015267;28;1173;-21
2022/12/12 01:53:20;;;;;;;;;;;;;;;25.29;31.95;99442.13;5017796;28;1910;-20
2022/12/12 01:55:46;;;;;;;;;;;;;;;25.42;32.09;99456.66;5020670;28;1187;-21
2022/12/12 01:58:11;;;;;;;;;;;;;;;25.35;31.74;99462.03;5018856;28;901;-21
2022/12/12 02:00:36;;;;;;;;;;;;;;;25.36;31.69;99466.34;5019772;28;1235;-21
2022/12/12 02:03:02;;;;;;;;;;;;;;;25.35;31.75;99461.19;5020470;28;1203;-21
2022/12/12 02:05:29;;;;;;;;;;;;;;;25.34;32.08;99467.59;5019469;28;1237;-20
2022/12/12 02:07:54;;;;;;;;;;;;;;;25.34;32.32;99462.22;5019087;28;1240;-21
2022/12/12 02:10:19;;;;;;;;;;;;;;;25.34;32.38;99454.97;5006002;28;901;-21
2022/12/12 02:12:45;;;;;;;;;;;;;;;25.31;32.04;99466.13;5019764;28;1898;-21
2022/12/12 02:15:10;;;;;;;;;;;;;;;25.31;32.24;99471.50;5020141;28;1128;-21
2022/12/12 02:17:45;;;;;;;;;;;;;;;25.29;32.05;99485.19;5019852;28;1180;-20
2022/12/12 02:20:25;;;;;;;;;;;;;;;25.36;32.08;99479.00;5020259;28;1156;-21
2022/12/12 02:23:06;;;;;;;;;;;;;;;25.28;32.23;99477.31;5019515;28;1125;-21
2022/12/12 02:25:49;;;;;;;;;;;;;;;25.31;32.38;99484.97;5020116;28;1230;-20
2022/12/12 02:28:30;;;;;;;;;;;;;;;25.36;32.16;99498.66;5008470;28;1128;-20
2022/12/12 02:31:10;;;;;;;;;;;;;;;25.35;32.27;99488.09;5019645;28;1206;-21
2022/12/12 02:33:42;;;;;;;;;;;;;;;25.39;32.15;99495.56;5011036;28;1971;-21
2022/12/12 02:36:07;;;;;;;;;;;;;;;25.35;32.43;99497.00;5015691;28;1101;-21
2022/12/12 02:38:51;;;;;;;;;;;;;;;25.39;32.47;99502.84;5019943;28;1203;-21
2022/12/12 02:41:22;;;;;;;;;;;;;;;25.33;32.40;99495.53;5020183;28;1384;-21
2022/12/12 02:43:57;;;;;;;;;;;;;;;25.31;32.48;99490.34;5019697;28;1161;-20
2022/12/12 02:46:24;;;;;;;;;;;;;;;25.35;32.72;99493.47;5018073;28;1173;-20
2022/12/12 02:48:49;;;;;;;;;;;;;;;25.35;32.65;99488.09;5004453;28;1121;-20
2022/12/12 02:51:15;;;;;;;;;;;;;;;25.31;32.48;99487.66;5019778;28;1128;-20
2022/12/12 02:53:40;;;;;;;;;;;;;;;25.32;32.66;99497.41;5018073;28;1965;-21
2022/12/12 02:56:26;;;;;;;;;;;;;;;25.31;32.79;99482.28;5019522;28;1160;-20
2022/12/12 02:58:51;;;;;;;;;;;;;;;25.32;32.66;99483.97;5000415;28;1414;-20
2022/12/12 03:01:27;;;;;;;;;;;;;;;25.32;32.48;99483.97;5018385;28;1269;-21
2022/12/12 03:10:04;;;;;;;;;;;;;;;25.29;32.41;99505.91;5007935;28;1105;-20
2022/12/12 03:12:40;;;;;;;;;;;;;;;25.33;32.69;99509.84;5019235;28;1969;-20
2022/12/12 03:15:16;;;;;;;;;;;;;;;25.33;32.39;99515.22;5019278;28;1168;-20
2022/12/12 03:17:42;;;;;;;;;;;;;;;25.33;32.46;99523.28;5017634;28;1269;-20
2022/12/12 03:20:14;;;;;;;;;;;;;;;25.30;32.13;99521.84;5018196;28;1228;-21
2022/12/12 03:22:42;;;;;;;;;;;;;;;25.27;32.51;99527.63;5018790;28;1152;-21
2022/12/12 03:25:09;;;;;;;;;;;;;;;25.24;32.48;99525.31;5018795;28;1132;-20
2022/12/12 03:27:37;;;;;;;;;;;;;;;25.25;32.70;99535.06;5017672;28;1185;-21
2022/12/12 03:30:06;;;;;;;;;;;;;;;25.24;32.35;99533.38;5018734;28;1203;-21
2022/12/12 03:32:47;;;;;;;;;;;;;;;25.28;32.56;99531.13;5018987;28;1906;-20
2022/12/12 03:35:17;;;;;;;;;;;;;;;25.24;32.40;99529.88;5018404;28;879;-21
2022/12/12 03:37:47;;;;;;;;;;;;;;;25.28;32.62;99540.06;5017342;28;1315;-21
2022/12/12 03:40:13;;;;;;;;;;;;;;;25.23;32.39;99538.97;5018676;28;1120;-21
2022/12/12 03:42:39;;;;;;;;;;;;;;;25.22;32.59;99540.03;5019023;28;1168;-21
2022/12/12 03:45:06;;;;;;;;;;;;;;;25.28;32.28;99540.06;5016980;28;1173;-20
2022/12/12 03:47:37;;;;;;;;;;;;;;;25.26;32.66;99533.19;5008522;28;887;-21
2022/12/12 03:50:07;;;;;;;;;;;;;;;25.27;32.45;99533.03;5014418;28;1152;-21
2022/12/12 03:52:32;;;;;;;;;;;;;;;25.26;32.47;99534.03;5016908;28;1898;-21
2022/12/12 03:55:07;;;;;;;;;;;;;;;25.29;32.65;99549.78;5018161;28;1228;-20
2022/12/12 03:57:34;;;;;;;;;;;;;;;25.29;32.50;99557.84;5005625;28;1120;-20
2022/12/12 04:00:01;;;;;;;;;;;;;;;25.26;32.30;99563.63;5018703;28;1171;-20
2022/12/12 04:02:45;;;;;;;;;;;;;;;25.26;32.38;99566.31;5017062;28;1129;-21
2022/12/12 04:05:21;;;;;;;;;;;;;;;25.25;32.26;99586.22;5016899;28;1188;-20
2022/12/12 04:07:48;;;;;;;;;;;;;;;25.25;32.45;99586.22;5017333;28;1156;-20
2022/12/12 04:12:57;;;;;;;;;;;;;;;25.47;32.22;99590.66;5015850;28;2417;-20
2022/12/12 04:15:25;;;;;;;;;;;;;;;24.64;25.63;99587.63;5016617;28;1965;-20
2022/12/12 04:18:10;;;;;;;;;;;;;;;23.70;33.11;99597.22;5016867;28;2289;-20
2022/12/12 04:23:30;;;;;;;;;;;;;;;25.56;27.17;99587.59;5000516;28;1914;-20
2022/12/12 04:28:43;;;;;;;;;;;;;;;25.66;25.84;99581.00;5017064;28;2246;-20
2022/12/12 04:31:08;;;;;;;;;;;;;;;24.92;25.80;99579.56;5020634;28;1287;-21
2022/12/12 04:33:37;;;;;;;;;;;;;;;24.85;25.21;99586.75;5024607;28;1980;-20
2022/12/12 04:36:02;;;;;;;;;;;;;;;25.55;24.30;99591.31;5015214;28;1002;-21
2022/12/12 04:38:27;;;;;;;;;;;;;;;25.47;24.59;99591.50;5006960;28;1143;-21
2022/12/12 04:40:53;;;;;;;;;;;;;;;25.78;24.73;99592.88;5016904;28;1117;-21
2022/12/12 04:43:24;;;;;;;;;;;;;;;26.33;24.62;99585.75;5015258;28;1077;-21
2022/12/12 04:45:53;;;;;;;;;;;;;;;26.63;24.72;99585.38;5017202;28;1120;-21
2022/12/12 04:48:19;;;;;;;;;;;;;;;26.62;25.91;99580.19;5017255;28;1128;-21
2022/12/12 04:50:47;;;;;;;;;;;;;;;26.81;25.97;99573.09;5016010;28;1164;-21
2022/12/12 04:53:13;;;;;;;;;;;;;;;26.46;26.48;99584.94;5014941;28;1902;-20
2022/12/12 04:55:42;;;;;;;;;;;;;;;26.41;26.78;99598.22;5015563;28;1136;-21
2022/12/12 04:58:07;;;;;;;;;;;;;;;26.30;26.83;99615.81;5014897;28;2411;-20
2022/12/12 05:00:52;;;;;;;;;;;;;;;26.08;27.04;99636.69;5015683;28;1148;-21
2022/12/12 05:03:38;;;;;;;;;;;;;;;26.14;27.19;99644.78;5016761;28;1124;-21
2022/12/12 05:06:06;;;;;;;;;;;;;;;26.24;27.09;99659.75;5016607;28;1834;-21
2022/12/12 05:08:32;;;;;;;;;;;;;;;26.34;26.93;99659.41;5015676;28;1179;-21
2022/12/12 05:11:01;;;;;;;;;;;;;;;26.56;26.76;99662.72;5008582;28;888;-20
2022/12/12 05:13:27;;;;;;;;;;;;;;;26.87;26.37;99657.78;5010165;28;1965;-21
2022/12/12 05:15:53;;;;;;;;;;;;;;;26.95;26.19;99644.06;5015372;28;1101;-21
2022/12/12 05:18:18;;;;;;;;;;;;;;;27.34;26.04;99670.44;5017179;28;1160;-21
2022/12/12 05:20:44;;;;;;;;;;;;;;;27.30;26.56;99669.19;5011469;28;1181;-21
2022/12/12 05:23:09;;;;;;;;;;;;;;;27.54;26.30;99681.19;5006958;28;1188;-21
2022/12/12 05:25:34;;;;;;;;;;;;;;;26.96;26.88;99680.00;5017081;28;1148;-21
2022/12/12 05:27:59;;;;;;;;;;;;;;;27.08;27.08;99680.22;5016405;28;1212;-20
2022/12/12 05:30:25;;;;;;;;;;;;;;;27.24;26.58;99685.16;5016525;28;1293;-21
2022/12/12 05:32:50;;;;;;;;;;;;;;;27.37;26.79;99673.53;5016643;28;1963;-21
2022/12/12 05:35:15;;;;;;;;;;;;;;;27.36;26.80;99663.75;5016308;28;1416;-21
2022/12/12 05:37:41;;;;;;;;;;;;;;;27.39;26.92;99662.53;5016040;28;1203;-21
2022/12/12 05:40:07;;;;;;;;;;;;;;;27.42;26.92;99674.75;5016852;28;1141;-21
2022/12/12 05:42:33;;;;;;;;;;;;;;;26.56;28.26;99697.78;5016921;28;1168;-21
2022/12/12 05:44:58;;;;;;;;;;;;;;;26.42;28.52;99699.66;5017182;28;1164;-21
2022/12/12 05:47:23;;;;;;;;;;;;;;;26.52;28.17;99702.78;5016399;28;1136;-21
2022/12/12 05:49:48;;;;;;;;;;;;;;;26.78;27.59;99708.41;5016703;28;1140;-21
2022/12/12 05:52:14;;;;;;;;;;;;;;;27.05;27.50;99696.81;5016461;28;1894;-20
2022/12/12 05:54:39;;;;;;;;;;;;;;;27.35;26.96;99688.28;5016665;28;1116;-20
2022/12/12 05:57:04;;;;;;;;;;;;;;;27.56;26.59;99683.69;5016625;28;1212;-21
2022/12/12 05:59:30;;;;;;;;;;;;;;;27.95;26.31;99690.00;5006601;28;846;-21
2022/12/12 06:01:55;;;;;;;;;;;;;;;27.35;27.16;99697.22;5011689;28;1152;-21
2022/12/12 06:04:21;;;;;;;;;;;;;;;27.35;27.10;99691.81;5016417;28;1140;-20
2022/12/12 06:06:46;;;;;;;;;;;;;;;27.40;27.03;99685.78;5016308;28;1147;-21
2022/12/12 06:09:11;;;;;;;;;;;;;;;27.55;26.92;99692.81;5015989;28;1195;-20
2022/12/12 06:11:36;;;;;;;;;;;;;;;27.62;26.52;99699.88;5016486;28;1101;-21
2022/12/12 06:14:02;;;;;;;;;;;;;;;27.69;26.34;99693.63;5016491;28;1979;-20
2022/12/12 06:16:27;;;;;;;;;;;;;;;27.67;26.32;99693.81;5015935;28;1358;-21
2022/12/12 06:18:53;;;;;;;;;;;;;;;26.83;27.79;99705.94;5016343;28;1172;-21
2022/12/12 06:21:18;;;;;;;;;;;;;;;26.65;28.02;99717.31;5016327;28;1144;-20
2022/12/12 06:23:43;;;;;;;;;;;;;;;26.97;27.69;99741.03;5015493;28;1239;-21
2022/12/12 06:26:09;;;;;;;;;;;;;;;27.26;27.30;99747.06;5016383;28;1218;-20
2022/12/12 06:28:35;;;;;;;;;;;;;;;27.54;26.88;99739.78;5016394;28;1168;-21
2022/12/12 06:31:00;;;;;;;;;;;;;;;27.73;26.85;99747.03;5015670;28;1140;-21
2022/12/12 06:33:26;;;;;;;;;;;;;;;27.97;26.16;99754.66;5016305;28;1910;-20
2022/12/12 06:36:06;;;;;;;;;;;;;;;27.48;26.85;99754.94;5012472;28;1155;-20
2022/12/12 06:38:31;;;;;;;;;;;;;;;27.48;27.21;99763.88;5002879;28;1003;-21
2022/12/12 06:40:56;;;;;;;;;;;;;;;27.67;26.86;99769.47;5016965;28;1171;-20
2022/12/12 06:43:22;;;;;;;;;;;;;;;27.65;27.03;99760.75;5016727;28;946;-20
2022/12/12 06:45:47;;;;;;;;;;;;;;;27.28;27.42;99774.69;5008858;28;1168;-21
2022/12/12 06:48:12;;;;;;;;;;;;;;;26.74;28.37;99766.53;5019031;28;1517;-20
2022/12/12 06:50:38;;;;;;;;;;;;;;;26.66;28.85;99775.63;5019364;28;1168;-20
2022/12/12 06:53:04;;;;;;;;;;;;;;;26.87;28.24;99766.56;5019091;28;2017;-20
2022/12/12 06:55:29;;;;;;;;;;;;;;;27.20;28.15;99785.69;5013966;28;1100;-20
2022/12/12 06:57:55;;;;;;;;;;;;;;;27.28;27.98;99780.09;5019372;28;1192;-20
2022/12/12 07:00:20;;;;;;;;;;;;;;;27.59;27.18;99784.00;5018526;28;1097;-20
2022/12/12 07:02:45;;;;;;;;;;;;;;;28.09;26.66;99789.97;5019429;28;1183;-21
2022/12/12 07:05:11;;;;;;;;;;;;;;;27.50;27.62;99793.38;5012919;28;1196;-21
2022/12/12 07:07:36;;;;;;;;;;;;;;;27.60;27.27;99793.78;5019262;28;1219;-20
2022/12/12 07:10:01;;;;;;;;;;;;;;;27.92;26.72;99792.31;5014635;28;1093;-21
2022/12/12 07:12:27;;;;;;;;;;;;;;;28.41;26.31;99791.97;5016298;28;1963;-21
2022/12/12 07:14:52;;;;;;;;;;;;;;;27.77;26.84;99785.28;5015803;28;1223;-20
2022/12/12 07:17:17;;;;;;;;;;;;;;;27.36;27.99;99798.78;5015014;28;1313;-21
2022/12/12 07:19:42;;;;;;;;;;;;;;;27.53;27.57;99813.75;5017537;28;1332;-22
2022/12/12 07:22:08;;;;;;;;;;;;;;;27.61;27.42;99816.25;5012592;28;1144;-21
2022/12/12 07:24:33;;;;;;;;;;;;;;;27.74;27.43;99807.31;5013163;28;1180;-21
2022/12/12 07:26:58;;;;;;;;;;;;;;;27.90;27.11;99805.19;5007387;28;1144;-21
2022/12/12 07:29:24;;;;;;;;;;;;;;;27.49;27.88;99808.75;5016646;28;1133;-21
2022/12/12 07:31:49;;;;;;;;;;;;;;;27.38;27.92;99799.41;5009326;28;1116;-21
2022/12/12 07:34:14;;;;;;;;;;;;;;;27.56;27.81;99803.34;5018865;28;1903;-21
2022/12/12 07:36:40;;;;;;;;;;;;;;;28.19;26.97;99803.03;5014766;28;1184;-22
2022/12/12 07:39:05;;;;;;;;;;;;;;;27.63;27.45;99806.88;5018315;28;1160;-21
2022/12/12 07:41:30;;;;;;;;;;;;;;;27.54;27.84;99805.44;5008252;28;1239;-21
2022/12/12 07:43:56;;;;;;;;;;;;;;;27.29;28.10;99805.22;5018342;28;1116;-21
2022/12/12 07:46:22;;;;;;;;;;;;;;;27.36;27.71;99797.97;5007708;28;1143;-21
2022/12/12 07:48:47;;;;;;;;;;;;;;;27.52;27.92;99812.91;5017222;28;1153;-21
2022/12/12 07:51:13;;;;;;;;;;;;;;;28.19;26.54;99800.34;5017353;28;1235;-21
2022/12/12 07:53:38;;;;;;;;;;;;;;;28.00;26.53;99808.28;5018068;28;1953;-21
2022/12/12 07:56:05;;;;;;;;;;;;;;;27.66;27.53;99812.91;5016798;28;1160;-21
2022/12/12 07:58:30;;;;;;;;;;;;;;;28.07;26.81;99814.53;5018247;28;1160;-21
2022/12/12 08:00:55;;;;;;;;;;;;;;;28.29;26.20;99816.94;5017676;28;862;-22
2022/12/12 08:03:21;;;;;;;;;;;;;;;28.14;26.19;99816.38;5017703;28;1159;-22
2022/12/12 08:05:46;;;;;;;;;;;;;;;27.49;27.51;99819.56;5013785;28;1219;-21
2022/12/12 08:08:11;;;;;;;;;;;;;;;27.44;27.90;99824.78;5017913;28;1207;-21
2022/12/12 08:10:37;;;;;;;;;;;;;;;27.60;27.51;99820.81;5014015;28;1180;-21
2022/12/12 08:13:03;;;;;;;;;;;;;;;28.05;26.90;99813.06;5017434;28;1895;-21
2022/12/12 08:15:28;;;;;;;;;;;;;;;27.92;26.91;99817.47;5017460;28;1183;-21
2022/12/12 08:17:53;;;;;;;;;;;;;;;27.49;27.71;99824.16;5017746;28;1097;-21
2022/12/12 08:20:18;;;;;;;;;;;;;;;27.56;27.40;99838.47;5014347;28;1144;-21
2022/12/12 08:22:44;;;;;;;;;;;;;;;27.80;27.17;99841.59;5016060;28;1243;-21
2022/12/12 08:25:09;;;;;;;;;;;;;;;27.97;27.04;99846.56;5015914;28;994;-21
2022/12/12 08:27:34;;;;;;;;;;;;;;;27.79;27.10;99853.47;5013348;28;1162;-21
2022/12/12 08:30:00;;;;;;;;;;;;;;;27.38;27.54;99850.72;5017058;28;1172;-21
2022/12/12 08:32:25;;;;;;;;;;;;;;;27.53;27.76;99844.28;5012259;28;1907;-21
2022/12/12 08:34:54;;;;;;;;;;;;;;;27.69;27.24;99847.66;5017248;28;1159;-22
2022/12/12 08:37:19;;;;;;;;;;;;;;;27.89;26.68;99863.00;5012394;28;1128;-22
2022/12/12 08:39:44;;;;;;;;;;;;;;;28.03;26.62;99853.00;5017646;28;1144;-21
2022/12/12 08:42:11;;;;;;;;;;;;;;;27.47;27.45;99850.53;5011102;28;1220;-21
2022/12/12 08:44:36;;;;;;;;;;;;;;;27.40;28.08;99853.22;5017196;28;1203;-21
2022/12/12 08:47:01;;;;;;;;;;;;;;;27.56;27.48;99849.25;5010026;28;1192;-21
2022/12/12 08:49:27;;;;;;;;;;;;;;;28.13;26.60;99845.28;5006960;28;934;-21
2022/12/12 08:51:52;;;;;;;;;;;;;;;28.17;26.32;99845.69;5001866;28;1204;-21
2022/12/12 08:54:17;;;;;;;;;;;;;;;27.45;27.42;99856.13;5017252;28;1973;-21
2022/12/12 08:56:42;;;;;;;;;;;;;;;27.24;27.68;99859.84;5004462;28;1262;-21
2022/12/12 08:59:08;;;;;;;;;;;;;;;27.46;27.54;99854.28;5016837;28;1136;-21
2022/12/12 09:01:33;;;;;;;;;;;;;;;27.89;26.66;99847.63;5003027;28;861;-21
2022/12/12 09:03:59;;;;;;;;;;;;;;;27.50;27.26;99845.53;5015026;28;1183;-21
2022/12/12 09:06:24;;;;;;;;;;;;;;;27.62;27.09;99848.47;5007093;28;1156;-21
2022/12/12 09:08:50;;;;;;;;;;;;;;;27.47;27.55;99859.47;5013426;28;1200;-22
2022/12/12 09:11:15;;;;;;;;;;;;;;;27.51;27.30;99857.16;5016717;28;1053;-21
2022/12/12 09:13:40;;;;;;;;;;;;;;;28.04;26.44;99860.06;5016373;28;1909;-22
2022/12/12 09:16:06;;;;;;;;;;;;;;;27.93;27.02;99853.41;5015724;28;1132;-22
2022/12/12 09:18:31;;;;;;;;;;;;;;;27.45;27.16;99845.31;5016964;28;1211;-21
2022/12/12 09:20:57;;;;;;;;;;;;;;;27.34;27.77;99852.16;5015220;28;1211;-21
2022/12/12 09:23:22;;;;;;;;;;;;;;;27.40;27.69;99853.22;5016660;28;1120;-21
2022/12/12 09:25:48;;;;;;;;;;;;;;;27.85;26.81;99860.72;5016357;28;1176;-21
2022/12/12 09:28:14;;;;;;;;;;;;;;;27.65;27.14;99857.16;5016824;28;1112;-21
2022/12/12 09:30:39;;;;;;;;;;;;;;;27.45;27.67;99853.44;5014188;28;1120;-21
2022/12/12 09:33:04;;;;;;;;;;;;;;;27.25;28.21;99848.84;5016544;28;1901;-22
2022/12/12 09:35:30;;;;;;;;;;;;;;;27.36;27.90;99854.69;5015372;28;1097;-22
2022/12/12 09:37:55;;;;;;;;;;;;;;;27.68;27.43;99854.03;5014185;28;1168;-22
2022/12/12 09:40:40;;;;;;;;;;;;;;;27.85;27.01;99860.72;5016747;28;1143;-21
2022/12/12 09:43:06;;;;;;;;;;;;;;;27.52;27.47;99858.84;5007518;28;1182;-21
2022/12/12 09:45:32;;;;;;;;;;;;;;;27.23;27.93;99872.53;5015902;28;1140;-23
2022/12/12 09:47:58;;;;;;;;;;;;;;;27.45;27.43;99874.19;5013198;28;1172;-21
2022/12/12 09:50:25;;;;;;;;;;;;;;;27.64;27.37;99872.56;5016717;28;934;-21
2022/12/12 09:52:50;;;;;;;;;;;;;;;27.99;26.59;99876.94;5006736;28;1919;-21
2022/12/12 09:55:29;;;;;;;;;;;;;;;27.71;27.14;99873.41;5015322;28;1141;-21
2022/12/12 09:57:57;;;;;;;;;;;;;;;27.36;27.81;99868.19;5006072;28;1172;-21
2022/12/12 10:00:23;;;;;;;;;;;;;;;27.46;27.61;99878.59;5014807;28;1212;-21
2022/12/12 10:02:48;;;;;;;;;;;;;;;27.73;27.32;99873.19;5016346;28;1104;-22
2022/12/12 10:05:22;;;;;;;;;;;;;;;27.96;26.84;99869.25;5015985;28;1148;-21
2022/12/12 10:07:56;;;;;;;;;;;;;;;27.60;27.14;99865.91;5005923;28;1172;-21
2022/12/12 10:10:35;;;;;;;;;;;;;;;27.30;27.88;99866.28;5014917;28;1246;-21
2022/12/12 10:13:01;;;;;;;;;;;;;;;27.55;27.25;99868.38;5009117;28;1963;-21
2022/12/12 10:15:28;;;;;;;;;;;;;;;27.78;27.09;99869.88;5015092;28;1533;-22
2022/12/12 10:17:54;;;;;;;;;;;;;;;27.79;26.83;99868.84;5002437;28;1227;-21
2022/12/12 10:20:20;;;;;;;;;;;;;;;27.63;27.42;99869.03;5018985;28;1207;-21
2022/12/12 10:22:46;;;;;;;;;;;;;;;27.51;27.58;99870.66;5007831;28;1266;-22
2022/12/12 10:25:19;;;;;;;;;;;;;;;27.73;27.45;99865.09;5013235;28;1167;-21
2022/12/12 10:27:44;;;;;;;;;;;;;;;28.20;26.53;99859.63;5004739;28;1207;-22
2022/12/12 10:30:14;;;;;;;;;;;;;;;28.01;26.96;99865.91;5020149;28;1155;-22
2022/12/12 10:32:52;;;;;;;;;;;;;;;27.64;27.78;99859.06;5005602;28;1914;-21
2022/12/12 10:35:27;;;;;;;;;;;;;;;28.03;27.05;99867.34;5018621;28;1093;-21
2022/12/12 10:37:53;;;;;;;;;;;;;;;28.32;26.87;99862.50;5012696;28;1156;-21
2022/12/12 10:40:24;;;;;;;;;;;;;;;27.85;27.11;99859.88;5019577;28;1175;-22
2022/12/12 10:42:58;;;;;;;;;;;;;;;27.66;27.72;99854.25;5019733;28;1220;-22
2022/12/12 10:45:23;;;;;;;;;;;;;;;27.69;27.68;99866.56;5019675;28;1140;-21
2022/12/12 10:47:49;;;;;;;;;;;;;;;28.42;26.58;99866.66;5018546;28;970;-21
2022/12/12 10:50:21;;;;;;;;;;;;;;;27.95;27.31;99849.47;5005509;28;1217;-21
2022/12/12 10:52:47;;;;;;;;;;;;;;;27.73;27.70;99862.38;5008053;28;1910;-21
2022/12/12 10:55:16;;;;;;;;;;;;;;;27.72;27.85;99866.13;5019306;28;1203;-22
2022/12/12 10:57:42;;;;;;;;;;;;;;;28.42;26.67;99867.50;5012645;28;1022;-21
2022/12/12 11:00:28;;;;;;;;;;;;;;;27.99;27.34;99860.72;5019385;28;1191;-21
2022/12/12 11:02:55;;;;;;;;;;;;;;;27.97;27.29;99854.69;5017573;28;993;-21
2022/12/12 11:05:21;;;;;;;;;;;;;;;28.32;26.89;99857.09;5018261;28;1248;-22
2022/12/12 11:08:06;;;;;;;;;;;;;;;28.14;27.16;99856.94;5010438;28;1161;-22
2022/12/12 11:10:34;;;;;;;;;;;;;;;28.08;27.36;99851.31;5019529;28;1137;-22
2022/12/12 11:13:00;;;;;;;;;;;;;;;28.29;27.10;99846.69;5010215;28;1902;-22
2022/12/12 11:15:30;;;;;;;;;;;;;;;28.46;26.75;99857.09;5019325;28;1171;-22
2022/12/12 11:17:57;;;;;;;;;;;;;;;28.16;27.48;99842.13;5012201;28;1498;-21
2022/12/12 11:20:22;;;;;;;;;;;;;;;27.87;27.83;99842.44;5009259;28;1399;-21
2022/12/12 11:22:49;;;;;;;;;;;;;;;28.30;27.27;99847.50;5018004;28;1180;-21
2022/12/12 11:25:24;;;;;;;;;;;;;;;28.30;27.08;99847.50;5013962;28;1227;-22
2022/12/12 11:27:50;;;;;;;;;;;;;;;27.76;28.09;99848.44;5014055;28;1334;-22
2022/12/12 11:30:22;;;;;;;;;;;;;;;28.22;27.46;99849.44;5007960;28;1064;-22
2022/12/12 11:32:47;;;;;;;;;;;;;;;27.75;28.34;99857.59;5012304;28;1918;-21
2022/12/12 11:35:23;;;;;;;;;;;;;;;27.79;28.11;99860.72;5010416;28;1080;-21
2022/12/12 11:37:49;;;;;;;;;;;;;;;27.79;28.27;99866.13;5014137;28;1383;-21
2022/12/12 11:40:24;;;;;;;;;;;;;;;28.09;27.85;99860.28;5009521;28;1018;-22
2022/12/12 11:42:50;;;;;;;;;;;;;;;27.93;27.77;99866.94;5017344;28;1250;-22
2022/12/12 11:45:15;;;;;;;;;;;;;;;27.70;28.20;99868.22;5011780;28;1550;-22
2022/12/12 11:47:43;;;;;;;;;;;;;;;28.01;27.69;99871.31;5009500;28;1647;-21
2022/12/12 11:50:15;;;;;;;;;;;;;;;28.17;27.48;99875.44;5012760;28;1239;-21
2022/12/12 11:52:40;;;;;;;;;;;;;;;27.94;27.66;99872.16;5013833;28;1902;-22
2022/12/12 11:55:05;;;;;;;;;;;;;;;27.75;28.03;99880.06;5018441;28;1129;-22
2022/12/12 11:57:41;;;;;;;;;;;;;;;28.52;27.00;99882.44;5017722;28;1172;-22
2022/12/12 12:00:08;;;;;;;;;;;;;;;28.15;27.64;99877.50;5017200;28;1116;-22
2022/12/12 12:02:39;;;;;;;;;;;;;;;27.77;28.21;99874.44;5011753;28;1247;-21
2022/12/12 12:05:13;;;;;;;;;;;;;;;27.94;27.61;99877.56;5016730;28;1164;-22
2022/12/12 12:07:43;;;;;;;;;;;;;;;28.22;27.57;99887.28;5017863;28;1223;-21
2022/12/12 12:10:31;;;;;;;;;;;;;;;28.15;27.41;99888.31;5016961;28;1199;-21
2022/12/12 12:13:04;;;;;;;;;;;;;;;27.68;28.47;99889.16;5016883;28;2015;-21
2022/12/12 12:15:29;;;;;;;;;;;;;;;28.30;27.48;99899.75;5016465;28;902;-21
2022/12/12 12:17:57;;;;;;;;;;;;;;;27.57;28.54;99896.88;5017487;28;1113;-21
2022/12/12 12:20:23;;;;;;;;;;;;;;;27.72;28.13;99893.16;5017793;28;1157;-21
2022/12/12 12:22:48;;;;;;;;;;;;;;;27.84;27.61;99893.38;5017911;28;1152;-21
2022/12/12 12:25:18;;;;;;;;;;;;;;;28.07;27.65;99892.09;5017931;28;1156;-21
2022/12/12 12:28:02;;;;;;;;;;;;;;;27.90;27.84;99886.28;5016415;28;1056;-22
2022/12/12 12:30:30;;;;;;;;;;;;;;;27.67;27.63;99887.50;5017935;28;1199;-22
2022/12/12 12:33:01;;;;;;;;;;;;;;;27.89;27.71;99896.28;5017809;28;1985;-21
2022/12/12 12:35:40;;;;;;;;;;;;;;;28.29;27.15;99889.13;5017481;28;1164;-21
2022/12/12 12:38:13;;;;;;;;;;;;;;;27.90;27.73;99900.63;5016010;28;1137;-21
2022/12/12 12:41:14;;;;;;;;;;;;;;;27.77;27.15;99901.47;5016871;28;1140;-21
2022/12/12 12:43:52;;;;;;;;;;;;;;;28.31;26.89;99912.19;4995836;28;1215;-21
2022/12/12 12:46:20;;;;;;;;;;;;;;;27.68;27.29;99905.38;5014727;28;1187;-21
2022/12/12 12:48:46;;;;;;;;;;;;;;;27.68;26.83;99908.94;5013159;28;1256;-21
2022/12/12 12:51:16;;;;;;;;;;;;;;;27.76;26.75;99910.59;5012652;28;1173;-21
2022/12/12 12:53:50;;;;;;;;;;;;;;;27.88;28.00;99902.69;5016342;28;1906;-21
2022/12/12 12:56:15;;;;;;;;;;;;;;;27.60;28.70;99909.13;5003938;28;1463;-21
2022/12/12 12:58:44;;;;;;;;;;;;;;;27.66;31.81;99902.88;5012028;28;1224;-21
2022/12/12 13:01:36;;;;;;;;;;;;;;;27.86;29.62;99910.22;5007584;28;1510;-21
2022/12/12 13:04:01;;;;;;;;;;;;;;;27.51;30.08;99905.78;5014592;28;1253;-21
2022/12/12 13:06:47;;;;;;;;;;;;;;;27.34;30.37;99895.38;5016290;28;1164;-22
2022/12/12 13:09:23;;;;;;;;;;;;;;;27.68;29.65;99887.34;5003278;28;1066;-21
2022/12/12 13:11:49;;;;;;;;;;;;;;;27.60;27.30;99891.06;5014925;28;1143;-21
2022/12/12 13:14:35;;;;;;;;;;;;;;;27.49;28.15;99894.38;5012004;28;1910;-21
2022/12/12 13:17:05;;;;;;;;;;;;;;;27.73;26.73;99895.66;5009629;28;1414;-21